createdAt,value
2018-05-04T00:01:01.757Z,9.80
2018-05-04T00:03:29.510Z,9.80
2018-05-04T00:05:57.185Z,9.80
2018-05-04T00:08:24.883Z,9.80
2018-05-04T00:10:52.596Z,9.70
2018-05-04T00:13:20.490Z,9.70
2018-05-04T00:15:48.127Z,9.70
2018-05-04T00:18:15.824Z,9.70
2018-05-04T00:20:43.552Z,9.70
2018-05-04T00:23:11.251Z,9.60
2018-05-04T00:25:38.917Z,9.60
2018-05-04T00:28:06.638Z,9.60
2018-05-04T00:30:34.333Z,9.60
2018-05-04T00:33:01.996Z,9.60
2018-05-04T00:35:29.686Z,9.50
2018-05-04T00:37:58.123Z,9.50
2018-05-04T00:40:25.819Z,9.50
2018-05-04T00:42:53.545Z,9.50
2018-05-04T00:45:21.218Z,9.50
2018-05-04T00:47:48.966Z,9.50
2018-05-04T00:50:16.646Z,9.40
2018-05-04T00:52:44.313Z,9.40
2018-05-04T00:55:11.996Z,9.40
2018-05-04T00:57:39.668Z,9.40
2018-05-04T01:00:07.363Z,9.40
2018-05-04T01:02:35.774Z,9.40
2018-05-04T01:05:03.459Z,9.30
2018-05-04T01:07:31.119Z,9.30
2018-05-04T01:09:58.795Z,9.30
2018-05-04T01:12:26.526Z,9.30
2018-05-04T01:14:54.206Z,9.30
2018-05-04T01:17:21.859Z,9.20
2018-05-04T01:19:49.547Z,9.20
2018-05-04T01:22:17.206Z,9.20
2018-05-04T01:24:44.942Z,9.20
2018-05-04T01:27:12.702Z,9.20
2018-05-04T01:29:40.389Z,9.20
2018-05-04T01:32:08.050Z,9.20
2018-05-04T01:34:35.821Z,9.20
2018-05-04T01:37:03.457Z,9.20
2018-05-04T01:39:31.143Z,9.20
2018-05-04T01:41:58.802Z,9.10
2018-05-04T01:44:26.474Z,9.10
2018-05-04T01:46:54.337Z,9.10
2018-05-04T01:49:22.001Z,9.10
2018-05-04T01:51:49.695Z,9.10
2018-05-04T01:54:18.131Z,9.10
2018-05-04T01:56:45.833Z,9.00
2018-05-04T01:59:13.480Z,9.00
2018-05-04T02:01:41.225Z,9.00
2018-05-04T02:04:08.867Z,9.00
2018-05-04T02:06:36.550Z,9.00
2018-05-04T02:09:04.807Z,8.90
2018-05-04T02:11:32.486Z,8.90
2018-05-04T02:14:00.145Z,8.80
2018-05-04T02:16:27.830Z,8.80
2018-05-04T02:18:55.486Z,8.80
2018-05-04T02:21:23.178Z,8.90
2018-05-04T02:23:51.606Z,8.80
2018-05-04T02:26:19.832Z,8.80
2018-05-04T02:28:47.572Z,8.80
2018-05-04T02:31:15.226Z,8.80
2018-05-04T02:33:42.888Z,8.70
2018-05-04T02:36:10.634Z,8.80
2018-05-04T02:38:38.295Z,8.70
2018-05-04T02:41:06.188Z,8.70
2018-05-04T02:43:33.850Z,8.70
2018-05-04T02:46:01.622Z,8.70
2018-05-04T02:48:29.270Z,8.70
2018-05-04T02:50:56.944Z,8.60
2018-05-04T02:53:24.607Z,8.60
2018-05-04T02:55:52.286Z,8.60
2018-05-04T02:58:20.010Z,8.60
2018-05-04T03:00:47.704Z,8.60
2018-05-04T03:03:15.440Z,8.50
2018-05-04T03:05:43.207Z,8.50
2018-05-04T03:08:10.870Z,8.40
2018-05-04T03:10:38.546Z,8.40
2018-05-04T03:13:06.220Z,8.40
2018-05-04T03:15:33.946Z,8.40
2018-05-04T03:18:01.622Z,8.40
2018-05-04T03:20:29.284Z,8.40
2018-05-04T03:22:57.727Z,8.40
2018-05-04T03:25:25.467Z,8.40
2018-05-04T03:27:53.162Z,8.30
2018-05-04T03:30:21.501Z,8.30
2018-05-04T03:32:49.270Z,8.30
2018-05-04T03:35:16.934Z,8.30
2018-05-04T03:37:44.629Z,8.20
2018-05-04T03:40:12.296Z,8.30
2018-05-04T03:42:40.040Z,8.30
2018-05-04T03:45:07.791Z,8.30
2018-05-04T03:47:35.472Z,8.30
2018-05-04T03:50:03.137Z,8.30
2018-05-04T03:52:30.828Z,8.40
2018-05-04T03:54:58.515Z,8.40
2018-05-04T03:57:32.970Z,8.40
2018-05-04T04:00:06.597Z,8.40
2018-05-04T04:02:40.181Z,8.50
2018-05-04T04:05:08.421Z,8.40
2018-05-04T04:07:36.956Z,8.50
2018-05-04T04:10:04.602Z,8.50
2018-05-04T04:12:32.319Z,8.40
2018-05-04T04:15:00.766Z,8.50
2018-05-04T04:17:28.481Z,8.50
2018-05-04T04:19:56.994Z,8.60
2018-05-04T04:22:24.818Z,8.50
2018-05-04T04:24:52.493Z,8.60
2018-05-04T04:27:21.840Z,8.60
2018-05-04T04:29:49.588Z,8.60
2018-05-04T04:32:17.270Z,8.70
2018-05-04T04:34:44.955Z,8.70
2018-05-04T04:37:12.634Z,8.80
2018-05-04T04:39:41.159Z,8.90
2018-05-04T04:42:08.919Z,8.90
2018-05-04T04:44:36.598Z,8.90
2018-05-04T04:47:04.348Z,9.00
2018-05-04T04:49:32.015Z,9.10
2018-05-04T04:51:59.681Z,9.20
2018-05-04T04:54:28.135Z,9.20
2018-05-04T04:56:56.673Z,9.30
2018-05-04T04:59:24.613Z,9.30
2018-05-04T05:01:52.294Z,9.30
2018-05-04T05:04:20.073Z,9.40
2018-05-04T05:06:47.713Z,9.40
2018-05-04T05:09:15.389Z,9.50
2018-05-04T05:11:43.162Z,9.50
2018-05-04T05:14:10.835Z,9.50
2018-05-04T05:16:38.588Z,9.60
2018-05-04T05:19:06.258Z,9.70
2018-05-04T05:21:35.430Z,9.80
2018-05-04T05:24:03.113Z,9.80
2018-05-04T05:26:30.778Z,9.90
2018-05-04T05:28:58.464Z,9.90
2018-05-04T05:31:26.177Z,10.00
2018-05-04T05:33:53.860Z,10.00
2018-05-04T05:36:21.597Z,10.10
2018-05-04T05:38:49.286Z,10.10
2018-05-04T05:41:16.976Z,10.20
2018-05-04T05:43:44.694Z,10.10
2018-05-04T05:46:12.458Z,10.30
2018-05-04T05:48:40.138Z,10.30
2018-05-04T05:51:07.809Z,10.40
2018-05-04T05:53:35.492Z,10.40
2018-05-04T05:56:03.179Z,10.50
2018-05-04T05:58:31.622Z,10.40
2018-05-04T06:00:59.484Z,10.40
2018-05-04T06:03:27.137Z,10.50
2018-05-04T06:05:54.802Z,10.50
2018-05-04T06:08:22.506Z,10.50
2018-05-04T06:10:50.956Z,10.60
2018-05-04T06:13:18.626Z,10.50
2018-05-04T06:15:47.179Z,10.70
2018-05-04T06:18:14.863Z,10.70
2018-05-04T06:20:42.552Z,10.80
2018-05-04T06:23:10.250Z,10.90
2018-05-04T06:25:38.002Z,11.10
2018-05-04T06:28:05.693Z,11.20
2018-05-04T06:30:33.450Z,11.30
2018-05-04T06:33:01.139Z,11.40
2018-05-04T06:35:28.886Z,11.40
2018-05-04T06:37:56.551Z,11.50
2018-05-04T06:40:24.235Z,11.60
2018-05-04T06:42:51.908Z,11.60
2018-05-04T06:45:19.606Z,11.60
2018-05-04T06:47:48.051Z,11.90
2018-05-04T06:50:15.724Z,11.80
2018-05-04T06:52:43.444Z,11.90
2018-05-04T06:55:11.224Z,12.10
2018-05-04T06:57:38.885Z,12.30
2018-05-04T07:00:06.639Z,12.30
2018-05-04T07:02:34.400Z,12.40
2018-05-04T07:05:02.169Z,12.50
2018-05-04T07:07:29.837Z,12.50
2018-05-04T07:09:57.522Z,12.70
2018-05-04T07:12:25.196Z,12.60
2018-05-04T07:14:52.927Z,12.80
2018-05-04T07:17:20.599Z,12.90
2018-05-04T07:19:48.343Z,13.10
2018-05-04T07:22:16.122Z,13.10
2018-05-04T07:24:43.909Z,13.30
2018-05-04T07:27:11.546Z,13.20
2018-05-04T07:29:39.234Z,13.20
2018-05-04T07:32:06.910Z,13.20
2018-05-04T07:34:34.604Z,13.30
2018-05-04T07:37:03.040Z,13.50
2018-05-04T07:39:30.774Z,13.50
2018-05-04T07:41:58.454Z,13.50
2018-05-04T07:44:26.211Z,13.60
2018-05-04T07:46:53.881Z,13.50
2018-05-04T07:49:21.586Z,13.60
2018-05-04T07:51:50.028Z,13.90
2018-05-04T07:54:17.714Z,13.90
2018-05-04T07:56:45.381Z,14.00
2018-05-04T07:59:13.066Z,14.20
2018-05-04T08:01:41.507Z,14.00
2018-05-04T08:04:09.191Z,14.00
2018-05-04T08:06:36.866Z,13.90
2018-05-04T08:09:05.334Z,14.20
2018-05-04T08:11:33.047Z,14.20
2018-05-04T08:14:00.723Z,14.30
2018-05-04T08:16:28.513Z,14.40
2018-05-04T08:18:56.160Z,14.60
2018-05-04T08:21:23.845Z,14.70
2018-05-04T08:23:51.523Z,14.80
2018-05-04T08:26:19.831Z,14.90
2018-05-04T08:28:47.618Z,14.70
2018-05-04T08:31:15.313Z,14.70
2018-05-04T08:33:43.087Z,14.90
2018-05-04T08:36:11.559Z,14.70
2018-05-04T08:38:39.198Z,14.70
2018-05-04T08:41:06.890Z,14.80
2018-05-04T08:43:34.627Z,15.00
2018-05-04T08:46:02.307Z,15.10
2018-05-04T08:48:29.970Z,15.10
2018-05-04T08:50:57.759Z,15.00
2018-05-04T08:53:25.339Z,14.80
2018-05-04T08:55:53.846Z,15.10
2018-05-04T08:58:21.514Z,15.10
2018-05-04T09:00:49.206Z,15.30
2018-05-04T09:03:16.903Z,15.30
2018-05-04T09:05:44.713Z,15.20
2018-05-04T09:08:12.372Z,15.30
2018-05-04T09:10:40.161Z,15.60
2018-05-04T09:13:07.933Z,15.70
2018-05-04T09:15:35.670Z,15.80
2018-05-04T09:18:03.338Z,15.80
2018-05-04T09:20:31.102Z,16.00
2018-05-04T09:22:58.866Z,16.10
2018-05-04T09:25:26.588Z,16.30
2018-05-04T09:27:54.290Z,16.40
2018-05-04T09:30:21.976Z,16.50
2018-05-04T09:32:49.646Z,16.50
2018-05-04T09:35:17.389Z,16.60
2018-05-04T09:37:45.138Z,16.90
2018-05-04T09:40:12.813Z,17.00
2018-05-04T09:42:40.495Z,17.10
2018-05-04T09:45:08.232Z,17.00
2018-05-04T09:47:35.913Z,16.70
2018-05-04T09:50:03.577Z,16.70
2018-05-04T09:52:31.332Z,16.70
2018-05-04T09:54:59.012Z,16.60
2018-05-04T09:57:26.690Z,16.60
2018-05-04T09:59:54.371Z,16.60
2018-05-04T10:02:22.108Z,17.00
2018-05-04T10:04:49.839Z,17.10
2018-05-04T10:07:18.151Z,17.00
2018-05-04T10:09:45.821Z,16.60
2018-05-04T10:12:13.575Z,16.40
2018-05-04T10:14:41.225Z,16.60
2018-05-04T10:17:08.906Z,16.30
2018-05-04T10:19:36.590Z,16.50
2018-05-04T10:22:04.268Z,16.80
2018-05-04T10:24:32.704Z,17.30
2018-05-04T10:27:00.398Z,17.30
2018-05-04T10:29:28.842Z,17.20
2018-05-04T10:31:56.529Z,17.10
2018-05-04T10:34:24.287Z,17.10
2018-05-04T10:36:51.948Z,17.10
2018-05-04T10:39:19.611Z,17.10
2018-05-04T10:41:47.357Z,17.20
2018-05-04T10:44:15.019Z,17.20
2018-05-04T10:46:42.801Z,17.30
2018-05-04T10:49:10.443Z,17.20
2018-05-04T10:51:38.177Z,17.30
2018-05-04T10:54:05.845Z,17.20
2018-05-04T10:56:33.511Z,17.10
2018-05-04T10:59:01.289Z,17.40
2018-05-04T11:01:28.964Z,17.70
2018-05-04T11:03:56.652Z,18.00
2018-05-04T11:06:25.082Z,18.10
2018-05-04T11:08:52.777Z,18.10
2018-05-04T11:11:20.537Z,17.90
2018-05-04T11:13:48.221Z,17.80
2018-05-04T11:16:15.891Z,18.00
2018-05-04T11:18:43.578Z,18.20
2018-05-04T11:21:12.047Z,18.60
2018-05-04T11:23:39.791Z,18.60
2018-05-04T11:26:07.529Z,18.60
2018-05-04T11:28:35.295Z,18.90
2018-05-04T11:31:03.054Z,19.10
2018-05-04T11:33:30.744Z,19.20
2018-05-04T11:35:58.413Z,19.30
2018-05-04T11:38:26.103Z,19.30
2018-05-04T11:40:54.633Z,19.00
2018-05-04T11:43:22.409Z,19.00
2018-05-04T11:45:50.158Z,18.90
2018-05-04T11:48:17.852Z,19.10
2018-05-04T11:50:45.534Z,19.20
2018-05-04T11:53:14.087Z,18.90
2018-05-04T11:55:41.762Z,18.90
2018-05-04T11:58:09.466Z,19.20
2018-05-04T12:00:37.970Z,19.80
2018-05-04T12:03:05.743Z,19.80
2018-05-04T12:05:33.410Z,20.00
2018-05-04T12:08:01.110Z,20.00
2018-05-04T12:10:28.782Z,20.10
2018-05-04T12:12:57.242Z,21.10
2018-05-04T12:15:24.912Z,21.00
2018-05-04T12:17:52.634Z,22.20
2018-05-04T12:20:20.306Z,23.30
2018-05-04T12:22:48.021Z,24.70
2018-05-04T12:25:15.728Z,27.10
2018-05-04T12:27:43.419Z,27.80
2018-05-04T12:30:11.188Z,28.10
2018-05-04T12:32:38.826Z,29.60
2018-05-04T12:35:06.526Z,30.20
2018-05-04T12:37:34.245Z,30.70
2018-05-04T12:40:02.010Z,31.50
2018-05-04T12:42:29.685Z,30.80
2018-05-04T12:44:57.370Z,31.90
2018-05-04T12:47:25.132Z,31.40
2018-05-04T12:49:52.897Z,31.80
2018-05-04T12:52:20.542Z,32.80
2018-05-04T12:54:48.325Z,34.30
2018-05-04T12:57:15.982Z,32.70
2018-05-04T12:59:43.677Z,32.20
2018-05-04T13:02:11.354Z,31.90
2018-05-04T13:04:39.049Z,31.30
2018-05-04T13:07:06.722Z,30.90
2018-05-04T13:09:34.413Z,32.00
2018-05-04T13:12:02.090Z,31.90
2018-05-04T13:14:30.533Z,31.60
2018-05-04T13:16:58.241Z,31.50
2018-05-04T13:19:25.922Z,31.30
2018-05-04T13:21:53.825Z,31.30
2018-05-04T13:24:21.500Z,31.50
2018-05-04T13:26:49.217Z,31.90
2018-05-04T13:29:17.546Z,32.70
2018-05-04T13:31:45.295Z,33.60
2018-05-04T13:34:12.992Z,33.50
2018-05-04T13:36:40.647Z,34.10
2018-05-04T13:39:09.169Z,32.50
2018-05-04T13:41:36.850Z,32.50
2018-05-04T13:44:04.633Z,32.60
2018-05-04T13:46:32.404Z,30.50
2018-05-04T13:49:00.270Z,30.20
2018-05-04T13:51:28.044Z,29.90
2018-05-04T13:53:55.763Z,30.20
2018-05-04T13:56:23.430Z,29.80
2018-05-04T13:58:51.202Z,29.20
2018-05-04T14:01:18.870Z,29.50
2018-05-04T14:03:46.571Z,28.60
2018-05-04T14:06:14.315Z,29.00
2018-05-04T14:08:41.963Z,28.30
2018-05-04T14:11:09.744Z,29.50
2018-05-04T14:13:37.394Z,30.10
2018-05-04T14:16:05.175Z,30.40
2018-05-04T14:18:32.902Z,29.80
2018-05-04T14:21:00.588Z,29.60
2018-05-04T14:23:28.283Z,30.80
2018-05-04T14:25:55.960Z,30.20
2018-05-04T14:28:24.473Z,28.80
2018-05-04T14:30:52.171Z,28.80
2018-05-04T14:33:19.888Z,29.20
2018-05-04T14:35:48.342Z,28.20
2018-05-04T14:38:16.774Z,27.40
2018-05-04T14:40:44.458Z,27.30
2018-05-04T14:43:12.141Z,27.10
2018-05-04T14:45:39.823Z,26.20
2018-05-04T14:48:08.331Z,27.00
2018-05-04T14:50:36.006Z,27.00
2018-05-04T14:53:03.691Z,27.80
2018-05-04T14:55:31.375Z,27.90
2018-05-04T14:57:59.095Z,28.50
2018-05-04T15:00:26.860Z,28.40
2018-05-04T15:02:55.069Z,29.00
2018-05-04T15:05:22.735Z,29.10
2018-05-04T15:07:50.401Z,29.20
2018-05-04T15:10:18.160Z,29.70
2018-05-04T15:12:45.991Z,28.10
2018-05-04T15:15:13.675Z,29.10
2018-05-04T15:17:41.354Z,26.50
2018-05-04T15:20:09.034Z,27.60
2018-05-04T15:22:36.797Z,28.30
2018-05-04T15:25:04.579Z,28.10
2018-05-04T15:27:32.192Z,28.70
2018-05-04T15:30:00.663Z,29.00
2018-05-04T15:32:28.344Z,28.90
2018-05-04T15:34:56.809Z,28.50
2018-05-04T15:37:25.344Z,28.80
2018-05-04T15:39:53.063Z,28.80
2018-05-04T15:42:20.813Z,28.40
2018-05-04T15:44:48.478Z,28.80
2018-05-04T15:47:16.183Z,28.20
2018-05-04T15:49:43.877Z,27.30
2018-05-04T15:52:11.587Z,28.50
2018-05-04T15:54:40.030Z,28.20
2018-05-04T15:57:07.792Z,28.20
2018-05-04T15:59:35.482Z,28.00
2018-05-04T16:02:04.072Z,27.90
2018-05-04T16:04:31.726Z,27.80
2018-05-04T16:06:59.429Z,27.60
2018-05-04T16:09:27.112Z,27.70
2018-05-04T16:11:54.878Z,27.50
2018-05-04T16:14:22.551Z,27.70
2018-05-04T16:16:50.299Z,27.50
2018-05-04T16:19:18.066Z,27.20
2018-05-04T16:21:45.822Z,27.60
2018-05-04T16:24:13.594Z,27.70
2018-05-04T16:26:41.357Z,27.10
2018-05-04T16:29:09.119Z,27.40
2018-05-04T16:31:36.807Z,27.00
2018-05-04T16:34:04.475Z,26.80
2018-05-04T16:36:32.186Z,27.20
2018-05-04T16:39:00.618Z,27.10
2018-05-04T16:41:28.310Z,27.10
2018-05-04T16:43:56.741Z,27.10
2018-05-04T16:46:30.127Z,27.10
2018-05-04T16:49:03.634Z,27.10
2018-05-04T16:51:31.324Z,27.40
2018-05-04T16:53:58.992Z,27.20
2018-05-04T16:56:26.703Z,26.70
2018-05-04T16:58:54.412Z,27.20
2018-05-04T17:01:22.117Z,27.00
2018-05-04T17:03:49.782Z,27.00
2018-05-04T17:06:18.295Z,27.00
2018-05-04T17:08:46.254Z,27.00
2018-05-04T17:11:13.945Z,26.60
2018-05-04T17:13:41.619Z,26.80
2018-05-04T17:16:09.307Z,26.10
2018-05-04T17:18:37.755Z,25.80
2018-05-04T17:21:05.420Z,25.70
2018-05-04T17:23:33.162Z,25.40
2018-05-04T17:26:00.832Z,25.30
2018-05-04T17:28:28.552Z,25.60
2018-05-04T17:30:56.205Z,26.00
2018-05-04T17:33:24.665Z,25.60
2018-05-04T17:35:52.399Z,25.60
2018-05-04T17:38:20.099Z,25.20
2018-05-04T17:40:47.756Z,25.30
2018-05-04T17:43:15.488Z,24.90
2018-05-04T17:45:43.251Z,24.60
2018-05-04T17:48:10.936Z,24.40
2018-05-04T17:50:38.712Z,24.30
2018-05-04T17:53:06.431Z,23.50
2018-05-04T17:55:34.145Z,23.40
2018-05-04T17:58:01.874Z,23.30
2018-05-04T18:00:29.560Z,23.30
2018-05-04T18:02:57.234Z,22.90
2018-05-04T18:05:24.902Z,22.40
2018-05-04T18:07:52.662Z,22.00
2018-05-04T18:10:20.343Z,21.80
2018-05-04T18:12:48.051Z,21.70
2018-05-04T18:15:15.722Z,21.00
2018-05-04T18:17:43.489Z,20.30
2018-05-04T18:20:11.251Z,19.80
2018-05-04T18:22:38.945Z,19.30
2018-05-04T18:25:06.599Z,18.90
2018-05-04T18:27:34.339Z,18.40
2018-05-04T18:30:02.106Z,18.20
2018-05-04T18:32:29.878Z,17.80
2018-05-04T18:34:57.535Z,17.40
2018-05-04T18:37:25.225Z,17.20
2018-05-04T18:39:52.994Z,17.00
2018-05-04T18:42:20.658Z,16.80
2018-05-04T18:44:48.320Z,16.70
2018-05-04T18:47:16.011Z,16.50
2018-05-04T18:49:43.682Z,16.30
2018-05-04T18:52:12.196Z,16.00
2018-05-04T18:54:39.862Z,16.00
2018-05-04T18:57:07.657Z,15.90
2018-05-04T18:59:35.418Z,15.70
2018-05-04T19:02:03.062Z,15.60
2018-05-04T19:04:30.758Z,15.50
2018-05-04T19:06:58.426Z,15.40
2018-05-04T19:09:26.881Z,15.20
2018-05-04T19:11:54.562Z,15.20
2018-05-04T19:14:22.251Z,15.10
2018-05-04T19:16:50.762Z,14.80
2018-05-04T19:19:18.536Z,14.80
2018-05-04T19:21:46.205Z,14.70
2018-05-04T19:24:13.990Z,14.70
2018-05-04T19:26:41.634Z,14.60
2018-05-04T19:29:09.438Z,14.50
2018-05-04T19:31:37.078Z,14.40
2018-05-04T19:34:04.768Z,14.30
2018-05-04T19:36:32.612Z,14.30
2018-05-04T19:39:00.263Z,14.20
2018-05-04T19:41:28.012Z,14.10
2018-05-04T19:43:55.700Z,14.00
2018-05-04T19:46:23.372Z,14.00
2018-05-04T19:48:51.194Z,14.00
2018-05-04T19:51:18.858Z,13.80
2018-05-04T19:53:46.562Z,13.70
2018-05-04T19:56:14.302Z,13.50
2018-05-04T19:58:42.002Z,13.30
2018-05-04T20:01:09.676Z,13.30
2018-05-04T20:03:38.198Z,13.10
2018-05-04T20:06:05.870Z,13.10
2018-05-04T20:08:33.574Z,13.10
2018-05-04T20:11:01.290Z,13.10
2018-05-04T20:13:29.092Z,13.00
2018-05-04T20:15:56.770Z,12.90
2018-05-04T20:18:24.493Z,12.80
2018-05-04T20:20:52.254Z,12.80
2018-05-04T20:23:19.923Z,12.80
2018-05-04T20:25:47.677Z,12.80
2018-05-04T20:28:15.475Z,12.70
2018-05-04T20:30:43.210Z,12.70
2018-05-04T20:33:10.975Z,12.50
2018-05-04T20:35:38.668Z,12.50
2018-05-04T20:38:06.433Z,12.50
2018-05-04T20:40:34.217Z,12.40
2018-05-04T20:43:01.858Z,12.30
2018-05-04T20:45:29.624Z,12.30
2018-05-04T20:47:57.267Z,12.20
2018-05-04T20:50:24.963Z,12.10
2018-05-04T20:52:53.399Z,12.00
2018-05-04T20:55:21.175Z,12.00
2018-05-04T20:57:48.850Z,11.90
2018-05-04T21:00:16.590Z,11.80
2018-05-04T21:02:44.278Z,11.80
2018-05-04T21:05:11.969Z,11.80
2018-05-04T21:07:39.692Z,11.80
2018-05-04T21:10:07.493Z,11.70
2018-05-04T21:12:35.141Z,11.70
2018-05-04T21:15:02.909Z,11.70
2018-05-04T21:17:30.643Z,11.60
2018-05-04T21:19:58.495Z,11.50
2018-05-04T21:22:26.074Z,11.50
2018-05-04T21:24:53.773Z,11.40
2018-05-04T21:27:21.439Z,11.50
2018-05-04T21:29:49.134Z,11.50
2018-05-04T21:32:16.826Z,11.50
2018-05-04T21:34:44.532Z,11.50
2018-05-04T21:37:12.201Z,11.40
2018-05-04T21:39:39.889Z,11.40
2018-05-04T21:42:07.570Z,11.30
2018-05-04T21:44:35.358Z,11.40
2018-05-04T21:47:03.034Z,11.30
2018-05-04T21:49:30.716Z,11.30
2018-05-04T21:51:58.489Z,11.30
2018-05-04T21:54:26.833Z,11.30
2018-05-04T21:56:54.615Z,11.30
2018-05-04T21:59:22.268Z,11.20
2018-05-04T22:01:49.975Z,11.10
2018-05-04T22:04:18.406Z,11.00
2018-05-04T22:06:46.091Z,11.00
2018-05-04T22:09:13.773Z,11.00
2018-05-04T22:11:41.454Z,10.90
2018-05-04T22:14:09.168Z,10.70
2018-05-04T22:16:36.911Z,10.70
2018-05-04T22:19:04.670Z,10.80
2018-05-04T22:21:32.352Z,10.70
2018-05-04T22:24:00.024Z,10.50
2018-05-04T22:26:27.858Z,10.60
2018-05-04T22:28:55.447Z,10.50
2018-05-04T22:31:23.194Z,10.40
2018-05-04T22:33:50.858Z,10.40
2018-05-04T22:36:18.550Z,10.40
2018-05-04T22:38:46.213Z,10.40
2018-05-04T22:41:13.947Z,10.40
2018-05-04T22:43:41.714Z,10.20
2018-05-04T22:46:09.399Z,10.20
2018-05-04T22:48:37.133Z,10.30
2018-05-04T22:51:04.822Z,10.20
2018-05-04T22:53:32.501Z,10.10
2018-05-04T22:56:00.182Z,10.00
2018-05-04T22:58:28.617Z,10.00
2018-05-04T23:00:56.367Z,9.90
2018-05-04T23:03:24.042Z,10.00
2018-05-04T23:05:51.742Z,10.00
2018-05-04T23:08:19.476Z,10.10
2018-05-04T23:10:47.142Z,10.20
2018-05-04T23:13:14.886Z,10.30
2018-05-04T23:15:42.651Z,10.20
2018-05-04T23:18:10.335Z,10.20
2018-05-04T23:20:38.973Z,10.20
2018-05-04T23:23:06.592Z,10.20
2018-05-04T23:25:34.359Z,10.30
2018-05-04T23:28:02.096Z,10.20
2018-05-04T23:30:29.769Z,10.20
2018-05-04T23:32:57.552Z,10.30
2018-05-04T23:35:25.204Z,10.20
2018-05-04T23:37:52.946Z,10.20
2018-05-04T23:40:20.622Z,10.20
2018-05-04T23:42:48.315Z,10.10
2018-05-04T23:45:16.388Z,10.10
2018-05-04T23:47:44.071Z,10.00
2018-05-04T23:50:12.509Z,10.00
2018-05-04T23:52:40.200Z,10.00
2018-05-04T23:55:07.951Z,9.90
2018-05-04T23:57:35.612Z,9.90
